Time;durP1;ratioP1;P1;durP2;ratioP2;P2;SDS_P1;SDS_P2;PMS_P1;PMS_P2;Temp;Humidity;BMP_temperature;BMP_pressure;BME280_temperature;BME280_humidity;BME280_pressure;Samples;Min_cycle;Max_cycle;Signal;HPM_P1;HPM_P2
2022/03/06 00:00:20;;;;;;;2.95;2.65;;;;;;;;;;4977156;28;20572;-49
2022/03/06 00:02:47;;;;;;;3.22;2.70;;;;;;;;;;4975747;28;20298;-49
2022/03/06 00:05:15;;;;;;;3.17;2.90;;;;;;;;;;4975825;28;20235;-49
2022/03/06 00:07:42;;;;;;;2.53;2.33;;;;;;;;;;4976310;28;20294;-49
2022/03/06 00:10:10;;;;;;;2.65;2.45;;;;;;;;;;4975830;28;20302;-49
2022/03/06 00:12:37;;;;;;;3.25;2.95;;;;;;;;;;4975621;28;20483;-49
2022/03/06 00:15:06;;;;;;;3.00;2.80;;;;;;;;;;4976291;28;20315;-49
2022/03/06 00:17:34;;;;;;;3.15;2.95;;;;;;;;;;4976180;28;20228;-49
2022/03/06 00:20:02;;;;;;;3.03;2.80;;;;;;;;;;4975920;28;20298;-49
2022/03/06 00:22:30;;;;;;;2.90;2.70;;;;;;;;;;4976652;28;20238;-49
2022/03/06 00:24:59;;;;;;;3.30;3.00;;;;;;;;;;4978665;28;20287;-49
2022/03/06 00:27:26;;;;;;;2.97;2.78;;;;;;;;;;4980373;28;20574;-49
2022/03/06 00:29:54;;;;;;;3.10;2.83;;;;;;;;;;4979393;28;20231;-49
2022/03/06 00:32:22;;;;;;;2.90;2.70;;;;;;;;;;4979707;28;20290;-48
2022/03/06 00:34:50;;;;;;;3.10;2.80;;;;;;;;;;4979230;28;20239;-49
2022/03/06 00:37:17;;;;;;;3.08;2.85;;;;;;;;;;4980180;28;20235;-49
2022/03/06 00:39:45;;;;;;;2.85;2.65;;;;;;;;;;4979494;28;20298;-49
2022/03/06 00:42:12;;;;;;;2.55;2.35;;;;;;;;;;4979564;28;20297;-49
2022/03/06 00:44:39;;;;;;;3.33;3.03;;;;;;;;;;4979724;28;20330;-49
2022/03/06 00:47:07;;;;;;;3.65;3.22;;;;;;;;;;4978178;28;20227;-49
2022/03/06 00:49:35;;;;;;;3.20;2.90;;;;;;;;;;4979326;28;20298;-49
2022/03/06 00:52:03;;;;;;;3.50;3.20;;;;;;;;;;4979129;28;20232;-49
2022/03/06 00:54:30;;;;;;;3.53;3.22;;;;;;;;;;4978878;28;20231;-49
2022/03/06 00:56:58;;;;;;;2.90;2.70;;;;;;;;;;4979184;28;20296;-49
2022/03/06 00:59:25;;;;;;;3.00;2.80;;;;;;;;;;4978669;28;20228;-49
2022/03/06 01:01:52;;;;;;;2.92;2.72;;;;;;;;;;4979109;28;20290;-49
2022/03/06 01:04:19;;;;;;;3.10;2.88;;;;;;;;;;4979079;28;20232;-49
2022/03/06 01:06:48;;;;;;;3.10;2.90;;;;;;;;;;4979087;28;20228;-49
2022/03/06 01:09:15;;;;;;;3.20;3.00;;;;;;;;;;4978777;28;20690;-49
2022/03/06 01:11:43;;;;;;;3.10;2.88;;;;;;;;;;4978822;28;20298;-48
2022/03/06 01:14:10;;;;;;;3.42;3.13;;;;;;;;;;4978716;28;20327;-49
2022/03/06 01:16:37;;;;;;;3.50;3.20;;;;;;;;;;4978556;28;20254;-49
2022/03/06 01:19:04;;;;;;;3.30;3.00;;;;;;;;;;4979021;28;20298;-48
2022/03/06 01:21:32;;;;;;;3.28;2.97;;;;;;;;;;4978255;28;20231;-49
2022/03/06 01:24:00;;;;;;;3.38;3.08;;;;;;;;;;4979084;28;20239;-49
2022/03/06 01:26:28;;;;;;;3.40;3.10;;;;;;;;;;4978812;28;20269;-49
2022/03/06 01:28:55;;;;;;;3.47;3.17;;;;;;;;;;4978937;28;20284;-49
2022/03/06 01:31:22;;;;;;;3.42;3.13;;;;;;;;;;4978975;28;20239;-49
2022/03/06 01:33:50;;;;;;;3.45;3.15;;;;;;;;;;4978260;28;20232;-49
2022/03/06 01:36:17;;;;;;;3.35;3.05;;;;;;;;;;4977826;28;20239;-49
2022/03/06 01:38:44;;;;;;;3.60;3.30;;;;;;;;;;4978131;28;20310;-48
2022/03/06 01:41:13;;;;;;;3.15;2.90;;;;;;;;;;4978441;28;20370;-49
2022/03/06 01:43:40;;;;;;;3.30;3.10;;;;;;;;;;4978108;28;20649;-49
2022/03/06 01:46:07;;;;;;;3.55;3.25;;;;;;;;;;4978473;28;20607;-48
2022/03/06 01:48:34;;;;;;;3.15;2.95;;;;;;;;;;4977921;28;20243;-49
2022/03/06 01:51:02;;;;;;;3.17;2.97;;;;;;;;;;4978328;28;20235;-48
2022/03/06 01:53:29;;;;;;;3.35;3.05;;;;;;;;;;4978395;28;20232;-49
2022/03/06 01:55:56;;;;;;;3.67;3.38;;;;;;;;;;4977905;28;20235;-49
2022/03/06 01:58:25;;;;;;;3.40;3.10;;;;;;;;;;4978101;28;20652;-49
2022/03/06 02:00:52;;;;;;;3.25;2.97;;;;;;;;;;4978108;28;20468;-49
2022/03/06 02:03:20;;;;;;;3.35;3.10;;;;;;;;;;4979122;28;20291;-49
2022/03/06 02:05:48;;;;;;;3.38;3.13;;;;;;;;;;4978365;28;20243;-49
2022/03/06 02:08:16;;;;;;;3.38;3.08;;;;;;;;;;4977753;28;20313;-49
2022/03/06 02:10:43;;;;;;;3.50;3.20;;;;;;;;;;4978332;28;20518;-49
2022/03/06 02:13:10;;;;;;;3.50;3.20;;;;;;;;;;4977454;28;20282;-49
2022/03/06 02:15:39;;;;;;;3.10;2.90;;;;;;;;;;4978279;28;20647;-49
2022/03/06 02:18:06;;;;;;;3.63;3.33;;;;;;;;;;4977562;28;20243;-49
2022/03/06 02:20:34;;;;;;;3.55;3.25;;;;;;;;;;4977849;28;20372;-49
2022/03/06 02:23:03;;;;;;;3.53;3.22;;;;;;;;;;4977762;28;20298;-49
2022/03/06 02:25:31;;;;;;;3.45;3.15;;;;;;;;;;4977225;28;20231;-49
2022/03/06 02:28:00;;;;;;;3.35;3.08;;;;;;;;;;4978058;28;20242;-49
2022/03/06 02:30:28;;;;;;;3.03;2.83;;;;;;;;;;4977490;28;20231;-49
2022/03/06 02:32:57;;;;;;;3.00;2.80;;;;;;;;;;4977828;28;20323;-48
2022/03/06 02:35:25;;;;;;;3.60;3.30;;;;;;;;;;4977618;28;20231;-49
2022/03/06 02:37:52;;;;;;;3.40;3.10;;;;;;;;;;4977449;28;20302;-49
2022/03/06 02:40:22;;;;;;;3.30;3.00;;;;;;;;;;4977393;28;20239;-48
2022/03/06 02:42:50;;;;;;;3.47;3.17;;;;;;;;;;4976647;28;20232;-49
2022/03/06 02:45:18;;;;;;;3.45;3.10;;;;;;;;;;4977105;28;20247;-49
2022/03/06 02:47:46;;;;;;;3.60;3.30;;;;;;;;;;4976561;28;20717;-49
2022/03/06 02:50:14;;;;;;;3.28;3.08;;;;;;;;;;4976858;28;20839;-49
2022/03/06 02:52:41;;;;;;;3.50;3.20;;;;;;;;;;4977055;28;20240;-49
2022/03/06 02:55:09;;;;;;;3.22;2.92;;;;;;;;;;4977454;28;20235;-49
2022/03/06 02:57:38;;;;;;;3.25;3.05;;;;;;;;;;4976633;28;20247;-49
2022/03/06 03:00:07;;;;;;;3.78;3.47;;;;;;;;;;4976041;28;20665;-49
2022/03/06 03:02:35;;;;;;;3.55;3.25;;;;;;;;;;4957099;29;20232;-49
2022/03/06 03:05:03;;;;;;;2.80;2.60;;;;;;;;;;4957377;28;20299;-49
2022/03/06 03:07:30;;;;;;;3.63;3.35;;;;;;;;;;4957572;29;20516;-49
2022/03/06 03:09:57;;;;;;;3.35;3.05;;;;;;;;;;4968729;28;20243;-49
2022/03/06 03:12:24;;;;;;;3.70;3.40;;;;;;;;;;4976262;28;20235;-49
2022/03/06 03:14:53;;;;;;;3.47;3.17;;;;;;;;;;4975988;28;20232;-49
2022/03/06 03:17:20;;;;;;;3.45;3.15;;;;;;;;;;4976407;28;20318;-49
2022/03/06 03:19:47;;;;;;;3.05;2.85;;;;;;;;;;4976379;28;20581;-49
2022/03/06 03:22:15;;;;;;;3.42;3.03;;;;;;;;;;4976512;28;20600;-49
2022/03/06 03:24:42;;;;;;;3.70;3.30;;;;;;;;;;4976915;28;20242;-49
2022/03/06 03:27:10;;;;;;;3.50;3.20;;;;;;;;;;4976053;28;20290;-49
2022/03/06 03:29:37;;;;;;;3.45;3.15;;;;;;;;;;4976708;28;20243;-49
2022/03/06 03:32:06;;;;;;;3.63;3.33;;;;;;;;;;4976258;28;20231;-49
2022/03/06 03:34:34;;;;;;;3.55;3.25;;;;;;;;;;4976791;28;20235;-49
2022/03/06 03:37:01;;;;;;;3.33;3.03;;;;;;;;;;4976126;28;20240;-49
2022/03/06 03:39:29;;;;;;;3.92;3.63;;;;;;;;;;4977194;28;20586;-49
2022/03/06 03:41:56;;;;;;;3.50;3.20;;;;;;;;;;4976564;28;20283;-49
2022/03/06 03:44:23;;;;;;;3.08;2.88;;;;;;;;;;4977071;28;20306;-49
2022/03/06 03:46:51;;;;;;;3.15;2.95;;;;;;;;;;4977286;28;20241;-49
2022/03/06 03:49:19;;;;;;;3.50;3.20;;;;;;;;;;4977128;28;20215;-49
2022/03/06 03:51:46;;;;;;;3.60;3.30;;;;;;;;;;4977429;28;20208;-49
2022/03/06 03:54:14;;;;;;;3.70;3.38;;;;;;;;;;4977424;28;20310;-49
2022/03/06 03:56:42;;;;;;;3.28;2.97;;;;;;;;;;4977276;28;20282;-49
2022/03/06 03:59:10;;;;;;;3.13;2.90;;;;;;;;;;4978972;28;20207;-49
2022/03/06 04:01:37;;;;;;;3.63;3.33;;;;;;;;;;4980869;28;20216;-49
2022/03/06 04:04:04;;;;;;;3.47;3.17;;;;;;;;;;4980550;28;20252;-49
2022/03/06 04:06:34;;;;;;;3.50;3.20;;;;;;;;;;4980110;28;20207;-49
2022/03/06 04:09:01;;;;;;;3.47;3.17;;;;;;;;;;4980845;28;20267;-49
2022/03/06 04:11:28;;;;;;;3.35;3.10;;;;;;;;;;4981132;28;20215;-49
2022/03/06 04:13:55;;;;;;;3.60;3.30;;;;;;;;;;4981164;28;20208;-49
2022/03/06 04:16:23;;;;;;;3.75;3.45;;;;;;;;;;4980954;28;20517;-49
2022/03/06 04:18:50;;;;;;;3.70;3.40;;;;;;;;;;4980806;28;20203;-49
2022/03/06 04:21:18;;;;;;;3.40;3.20;;;;;;;;;;4980517;28;20211;-49
2022/03/06 04:23:47;;;;;;;3.42;3.13;;;;;;;;;;4980778;28;20216;-49
2022/03/06 04:26:14;;;;;;;3.28;3.08;;;;;;;;;;4980617;28;20215;-49
2022/03/06 04:28:41;;;;;;;3.33;3.13;;;;;;;;;;4980832;28;20211;-49
2022/03/06 04:31:08;;;;;;;3.80;3.50;;;;;;;;;;4980927;28;20267;-49
2022/03/06 04:33:36;;;;;;;3.35;3.05;;;;;;;;;;4980360;28;20247;-49
2022/03/06 04:36:03;;;;;;;3.58;3.28;;;;;;;;;;4980598;28;20271;-49
2022/03/06 04:38:31;;;;;;;3.50;3.20;;;;;;;;;;4980364;28;20610;-49
2022/03/06 04:40:59;;;;;;;3.78;3.47;;;;;;;;;;4979891;28;20207;-49
2022/03/06 04:43:27;;;;;;;3.33;3.03;;;;;;;;;;4979341;28;20688;-49
2022/03/06 04:45:54;;;;;;;3.33;3.10;;;;;;;;;;4979413;28;20239;-49
2022/03/06 04:48:22;;;;;;;3.53;3.22;;;;;;;;;;4980303;28;20204;-49
2022/03/06 04:50:49;;;;;;;3.40;3.10;;;;;;;;;;4979864;28;20208;-49
2022/03/06 04:53:16;;;;;;;3.60;3.30;;;;;;;;;;4979914;28;20282;-49
2022/03/06 04:55:43;;;;;;;3.40;3.10;;;;;;;;;;4980492;28;20262;-49
2022/03/06 04:58:12;;;;;;;3.50;3.20;;;;;;;;;;4979624;28;20235;-49
2022/03/06 05:00:40;;;;;;;3.53;3.22;;;;;;;;;;4979573;28;20666;-49
2022/03/06 05:03:07;;;;;;;3.83;3.53;;;;;;;;;;4979715;28;20274;-49
2022/03/06 05:05:34;;;;;;;3.72;3.42;;;;;;;;;;4979630;28;20274;-49
2022/03/06 05:08:01;;;;;;;3.85;3.55;;;;;;;;;;4979893;28;20203;-49
2022/03/06 05:10:29;;;;;;;3.85;3.55;;;;;;;;;;4978778;28;20277;-49
2022/03/06 05:12:56;;;;;;;3.85;3.55;;;;;;;;;;4979912;28;20208;-49
2022/03/06 05:15:25;;;;;;;3.90;3.60;;;;;;;;;;4979822;28;20312;-49
2022/03/06 05:17:52;;;;;;;4.15;3.75;;;;;;;;;;4979921;28;20577;-49
2022/03/06 05:20:19;;;;;;;3.83;3.53;;;;;;;;;;4979519;28;20266;-49
2022/03/06 05:22:47;;;;;;;3.92;3.60;;;;;;;;;;4980405;28;20208;-49
2022/03/06 05:25:14;;;;;;;3.85;3.55;;;;;;;;;;4980280;28;20215;-49
2022/03/06 05:27:42;;;;;;;4.40;4.00;;;;;;;;;;4979949;28;20266;-49
2022/03/06 05:30:10;;;;;;;3.85;3.55;;;;;;;;;;4980380;28;20313;-49
2022/03/06 05:32:39;;;;;;;4.20;3.80;;;;;;;;;;4980208;28;20215;-49
2022/03/06 05:35:07;;;;;;;4.35;3.95;;;;;;;;;;4980216;28;20204;-49
2022/03/06 05:37:34;;;;;;;4.30;3.90;;;;;;;;;;4979809;28;20603;-49
2022/03/06 05:40:01;;;;;;;4.50;4.10;;;;;;;;;;4980237;28;20207;-49
2022/03/06 05:42:29;;;;;;;4.25;3.95;;;;;;;;;;4980035;28;20215;-49
2022/03/06 05:44:56;;;;;;;4.43;4.03;;;;;;;;;;4980029;28;20235;-49
2022/03/06 05:47:23;;;;;;;4.30;3.90;;;;;;;;;;4979718;28;20259;-49
2022/03/06 05:49:52;;;;;;;4.13;3.83;;;;;;;;;;4979834;28;20264;-49
2022/03/06 05:52:19;;;;;;;4.10;3.80;;;;;;;;;;4979640;28;20639;-49
2022/03/06 05:54:47;;;;;;;4.25;3.95;;;;;;;;;;4979194;28;20595;-49
2022/03/06 05:57:14;;;;;;;4.38;3.97;;;;;;;;;;4979296;28;20208;-49
2022/03/06 05:59:42;;;;;;;4.13;3.83;;;;;;;;;;4979810;28;20266;-49
2022/03/06 06:02:09;;;;;;;4.00;3.70;;;;;;;;;;4979350;28;20489;-49
2022/03/06 06:04:36;;;;;;;4.35;4.03;;;;;;;;;;4979564;28;20215;-49
2022/03/06 06:07:05;;;;;;;4.05;3.75;;;;;;;;;;4979742;28;20270;-49
2022/03/06 06:09:33;;;;;;;4.10;3.80;;;;;;;;;;4979618;28;20258;-49
2022/03/06 06:12:00;;;;;;;4.00;3.70;;;;;;;;;;4979391;28;20636;-49
2022/03/06 06:14:27;;;;;;;4.03;3.72;;;;;;;;;;4979744;28;20215;-49
2022/03/06 06:16:54;;;;;;;4.40;4.00;;;;;;;;;;4979398;28;20208;-49
2022/03/06 06:19:22;;;;;;;4.30;3.90;;;;;;;;;;4978420;28;20231;-49
2022/03/06 06:21:49;;;;;;;4.30;4.00;;;;;;;;;;4978962;28;20617;-49
2022/03/06 06:24:18;;;;;;;4.63;4.10;;;;;;;;;;4979395;28;20215;-49
2022/03/06 06:26:47;;;;;;;4.10;3.80;;;;;;;;;;4978881;28;20551;-49
2022/03/06 06:29:15;;;;;;;4.07;3.78;;;;;;;;;;4979050;28;20254;-49
2022/03/06 06:31:43;;;;;;;4.50;4.10;;;;;;;;;;4978906;28;20212;-49
2022/03/06 06:34:10;;;;;;;4.47;4.18;;;;;;;;;;4979403;28;20207;-49
2022/03/06 06:36:38;;;;;;;4.13;3.83;;;;;;;;;;4978895;28;20207;-49
2022/03/06 06:39:05;;;;;;;4.20;3.80;;;;;;;;;;4978907;28;20298;-49
2022/03/06 06:41:34;;;;;;;4.30;4.00;;;;;;;;;;4978935;28;20216;-49
2022/03/06 06:44:01;;;;;;;4.50;4.10;;;;;;;;;;4978677;28;20305;-49
2022/03/06 06:46:28;;;;;;;4.65;4.25;;;;;;;;;;4978855;28;20642;-48
2022/03/06 06:48:56;;;;;;;4.10;3.80;;;;;;;;;;4979069;28;20211;-49
2022/03/06 06:51:23;;;;;;;4.32;3.92;;;;;;;;;;4977819;28;20203;-49
2022/03/06 06:53:50;;;;;;;4.20;3.90;;;;;;;;;;4979126;28;20262;-49
2022/03/06 06:56:19;;;;;;;4.63;4.22;;;;;;;;;;4978780;28;20207;-49
2022/03/06 06:58:47;;;;;;;4.63;4.22;;;;;;;;;;4978983;28;20232;-49
2022/03/06 07:01:17;;;;;;;4.55;4.15;;;;;;;;;;4978560;28;20207;-49
2022/03/06 07:03:44;;;;;;;4.38;4.07;;;;;;;;;;4978412;28;20254;-49
2022/03/06 07:06:11;;;;;;;4.20;3.80;;;;;;;;;;4978130;28;20227;-49
2022/03/06 07:08:39;;;;;;;4.68;4.28;;;;;;;;;;4977950;28;20204;-49
2022/03/06 07:11:06;;;;;;;4.63;4.22;;;;;;;;;;4977907;28;20207;-49
2022/03/06 07:13:33;;;;;;;4.45;4.05;;;;;;;;;;4977772;28;20274;-49
2022/03/06 07:16:02;;;;;;;4.32;4.03;;;;;;;;;;4977779;28;20231;-49
2022/03/06 07:18:30;;;;;;;4.85;4.45;;;;;;;;;;4976862;28;20235;-49
2022/03/06 07:20:57;;;;;;;4.03;3.72;;;;;;;;;;4977837;28;20666;-49
2022/03/06 07:23:24;;;;;;;4.85;4.45;;;;;;;;;;4977506;28;20555;-49
2022/03/06 07:25:51;;;;;;;4.63;4.22;;;;;;;;;;4977842;28;20274;-49
2022/03/06 07:28:19;;;;;;;4.35;4.03;;;;;;;;;;4977637;28;20219;-49
2022/03/06 07:30:48;;;;;;;4.45;4.10;;;;;;;;;;4977508;28;20219;-49
2022/03/06 07:33:16;;;;;;;4.90;4.50;;;;;;;;;;4976610;28;20291;-50
2022/03/06 07:35:43;;;;;;;5.20;4.35;;;;;;;;;;4977524;28;20204;-49
2022/03/06 07:38:11;;;;;;;4.90;4.50;;;;;;;;;;4977058;28;20555;-49
2022/03/06 07:40:38;;;;;;;4.47;4.18;;;;;;;;;;4977388;28;20212;-49
2022/03/06 07:43:05;;;;;;;5.18;4.78;;;;;;;;;;4977467;28;21171;-49
2022/03/06 07:45:33;;;;;;;4.78;4.38;;;;;;;;;;4976504;28;20231;-49
2022/03/06 07:48:00;;;;;;;4.38;4.07;;;;;;;;;;4977180;28;20328;-49
2022/03/06 07:50:28;;;;;;;5.00;4.50;;;;;;;;;;4976906;28;20215;-48
2022/03/06 07:52:56;;;;;;;5.10;4.70;;;;;;;;;;4977137;28;20208;-49
2022/03/06 07:55:23;;;;;;;5.40;4.90;;;;;;;;;;4976923;28;20583;-49
2022/03/06 07:57:51;;;;;;;5.30;4.90;;;;;;;;;;4977120;28;20215;-49
2022/03/06 08:00:18;;;;;;;5.20;4.70;;;;;;;;;;4976626;28;20207;-48
2022/03/06 08:02:45;;;;;;;4.95;4.53;;;;;;;;;;4976649;28;20219;-49
2022/03/06 08:05:13;;;;;;;5.47;4.97;;;;;;;;;;4976867;28;20595;-49
2022/03/06 08:07:41;;;;;;;5.18;4.78;;;;;;;;;;4977110;28;20545;-49
2022/03/06 08:10:09;;;;;;;5.28;4.88;;;;;;;;;;4976038;28;20216;-49
2022/03/06 08:12:37;;;;;;;5.03;4.63;;;;;;;;;;4976195;28;20204;-49
2022/03/06 08:15:05;;;;;;;4.97;4.57;;;;;;;;;;4976593;28;20540;-49
2022/03/06 08:17:32;;;;;;;5.28;4.78;;;;;;;;;;4976819;28;20207;-49
2022/03/06 08:19:59;;;;;;;5.40;4.90;;;;;;;;;;4975775;28;20220;-48
2022/03/06 08:22:26;;;;;;;5.00;4.60;;;;;;;;;;4976682;28;20282;-49
2022/03/06 08:24:56;;;;;;;5.35;4.90;;;;;;;;;;4976658;28;20274;-49
2022/03/06 08:27:23;;;;;;;5.35;4.88;;;;;;;;;;4976739;28;20979;-49
2022/03/06 08:29:50;;;;;;;4.80;4.40;;;;;;;;;;4976797;28;20212;-49
2022/03/06 08:32:17;;;;;;;5.35;4.95;;;;;;;;;;4976370;28;20537;-49
2022/03/06 08:34:46;;;;;;;5.20;4.80;;;;;;;;;;4976566;28;20615;-49
2022/03/06 08:37:14;;;;;;;5.38;4.88;;;;;;;;;;4976392;28;20208;-49
2022/03/06 08:39:42;;;;;;;5.18;4.78;;;;;;;;;;4975537;28;20267;-49
2022/03/06 08:42:11;;;;;;;5.40;4.97;;;;;;;;;;4975701;28;20204;-49
2022/03/06 08:44:38;;;;;;;5.00;4.60;;;;;;;;;;4976433;28;20570;-49
2022/03/06 08:47:06;;;;;;;5.55;5.07;;;;;;;;;;4979328;28;20208;-49
2022/03/06 08:49:33;;;;;;;5.63;5.13;;;;;;;;;;4979413;28;20204;-49
2022/03/06 08:52:01;;;;;;;5.85;5.35;;;;;;;;;;4979612;28;20215;-49
2022/03/06 08:54:28;;;;;;;5.18;4.78;;;;;;;;;;4979878;28;20278;-49
2022/03/06 08:56:56;;;;;;;5.60;5.15;;;;;;;;;;4979651;28;20545;-49
2022/03/06 08:59:24;;;;;;;4.93;4.53;;;;;;;;;;4979274;28;20235;-49
2022/03/06 09:01:55;;;;;;;5.35;4.93;;;;;;;;;;4979025;28;20216;-49
2022/03/06 09:04:23;;;;;;;6.07;5.40;;;;;;;;;;4979590;28;20208;-49
2022/03/06 09:06:50;;;;;;;5.57;5.07;;;;;;;;;;4978751;28;20227;-48
2022/03/06 09:09:17;;;;;;;5.38;4.88;;;;;;;;;;4978630;28;20203;-49
2022/03/06 09:11:45;;;;;;;6.30;5.70;;;;;;;;;;4979193;28;20590;-49
2022/03/06 09:14:12;;;;;;;5.95;5.45;;;;;;;;;;4979593;28;20243;-49
2022/03/06 09:16:41;;;;;;;5.75;5.25;;;;;;;;;;4979094;28;20215;-49
2022/03/06 09:19:09;;;;;;;9.40;8.52;;;;;;;;;;4979833;28;20239;-48
2022/03/06 09:21:36;;;;;;;10.00;9.10;;;;;;;;;;4979786;28;20263;-49
2022/03/06 09:24:03;;;;;;;10.13;9.18;;;;;;;;;;4979461;28;20267;-49
2022/03/06 09:26:31;;;;;;;11.00;9.73;;;;;;;;;;4979426;28;20587;-48
2022/03/06 09:28:58;;;;;;;9.93;9.02;;;;;;;;;;4979214;28;20204;-49
2022/03/06 09:31:25;;;;;;;9.95;9.05;;;;;;;;;;4979086;28;20215;-48
2022/03/06 09:33:54;;;;;;;63.22;56.50;;;;;;;;;;4979093;28;20294;-49
2022/03/06 09:36:22;;;;;;;45.47;40.72;;;;;;;;;;4978920;28;20532;-48
2022/03/06 09:38:49;;;;;;;43.80;39.25;;;;;;;;;;4979337;28;20242;-49
2022/03/06 09:41:17;;;;;;;41.67;37.28;;;;;;;;;;4978231;28;20212;-48
2022/03/06 09:43:45;;;;;;;39.88;35.58;;;;;;;;;;4978854;28;20588;-49
2022/03/06 09:46:13;;;;;;;39.15;35.03;;;;;;;;;;4978260;28;20305;-49
2022/03/06 09:48:40;;;;;;;37.70;33.95;;;;;;;;;;4977288;28;20565;-48
2022/03/06 09:51:09;;;;;;;35.70;31.90;;;;;;;;;;4977013;28;20585;-48
2022/03/06 09:53:36;;;;;;;32.63;29.33;;;;;;;;;;4977630;28;20679;-49
2022/03/06 09:56:04;;;;;;;33.42;30.00;;;;;;;;;;4977478;28;20203;-49
2022/03/06 09:58:31;;;;;;;31.10;27.90;;;;;;;;;;4977809;28;20259;-49
2022/03/06 10:00:59;;;;;;;30.52;27.35;;;;;;;;;;4978402;28;20208;-49
2022/03/06 10:03:26;;;;;;;29.63;26.75;;;;;;;;;;4978076;28;20271;-49
2022/03/06 10:05:53;;;;;;;28.48;25.67;;;;;;;;;;4978992;28;20223;-48
2022/03/06 10:08:26;;;;;;;28.58;25.67;;;;;;;;;;4978414;28;20203;-48
2022/03/06 10:10:56;;;;;;;26.67;24.02;;;;;;;;;;4979283;28;20208;-49
2022/03/06 10:13:29;;;;;;;25.80;23.10;;;;;;;;;;4978168;28;20212;-49
2022/03/06 10:16:01;;;;;;;26.75;23.95;;;;;;;;;;4978235;28;20598;-49
2022/03/06 10:18:31;;;;;;;23.75;21.50;;;;;;;;;;4979132;28;20208;-50
2022/03/06 10:21:02;;;;;;;25.55;22.95;;;;;;;;;;4978578;28;20720;-49
2022/03/06 10:23:31;;;;;;;24.17;21.73;;;;;;;;;;4977968;28;20643;-49
2022/03/06 10:26:02;;;;;;;23.88;21.05;;;;;;;;;;4978712;28;20208;-49
2022/03/06 10:28:29;;;;;;;22.52;20.20;;;;;;;;;;4978714;28;20207;-49
2022/03/06 10:31:04;;;;;;;23.83;21.33;;;;;;;;;;4978095;28;20207;-49
2022/03/06 10:33:31;;;;;;;25.70;23.00;;;;;;;;;;4977306;28;20220;-49
2022/03/06 10:36:02;;;;;;;24.00;21.52;;;;;;;;;;4978282;28;20203;-49
2022/03/06 10:38:31;;;;;;;23.92;21.50;;;;;;;;;;4978550;28;20483;-49
2022/03/06 10:40:59;;;;;;;22.67;20.45;;;;;;;;;;4978730;28;20266;-49
2022/03/06 10:43:27;;;;;;;21.10;18.90;;;;;;;;;;4978049;28;20282;-49
2022/03/06 10:46:06;;;;;;;20.98;18.92;;;;;;;;;;4977802;28;20314;-49
2022/03/06 10:48:33;;;;;;;20.17;18.13;;;;;;;;;;4978467;28;20211;-49
2022/03/06 10:51:01;;;;;;;20.80;18.60;;;;;;;;;;4975262;28;20618;-49
2022/03/06 10:53:29;;;;;;;19.80;17.67;;;;;;;;;;4977751;28;20303;-49
2022/03/06 10:56:06;;;;;;;19.90;17.80;;;;;;;;;;4977016;28;20235;-49
2022/03/06 10:58:34;;;;;;;18.40;16.15;;;;;;;;;;4976299;28;20235;-49
2022/03/06 11:01:01;;;;;;;19.63;16.58;;;;;;;;;;4977035;28;20708;-49
2022/03/06 11:03:28;;;;;;;22.00;17.25;;;;;;;;;;4976167;28;20582;-49
2022/03/06 11:05:56;;;;;;;22.08;17.05;;;;;;;;;;4976658;28;20242;-49
2022/03/06 11:08:24;;;;;;;18.92;16.17;;;;;;;;;;4976034;28;20235;-49
2022/03/06 11:10:52;;;;;;;21.10;17.40;;;;;;;;;;4976014;28;20334;-49
2022/03/06 11:13:21;;;;;;;21.80;18.98;;;;;;;;;;4975126;28;20243;-49
2022/03/06 11:15:48;;;;;;;22.38;17.92;;;;;;;;;;4976200;28;20268;-49
2022/03/06 11:18:15;;;;;;;20.70;17.27;;;;;;;;;;4975700;28;20232;-49
2022/03/06 11:20:45;;;;;;;20.85;17.75;;;;;;;;;;4976672;28;20298;-49
2022/03/06 11:23:16;;;;;;;24.23;18.35;;;;;;;;;;4976899;28;20243;-49
2022/03/06 11:25:48;;;;;;;21.52;16.75;;;;;;;;;;4977197;28;20216;-49
2022/03/06 11:28:23;;;;;;;21.10;16.83;;;;;;;;;;4977616;28;20259;-49
2022/03/06 11:30:52;;;;;;;20.20;16.75;;;;;;;;;;4977256;28;20477;-48
2022/03/06 11:33:20;;;;;;;22.92;16.73;;;;;;;;;;4977671;28;20211;-49
2022/03/06 11:35:47;;;;;;;23.20;16.65;;;;;;;;;;4976960;28;20213;-49
2022/03/06 11:38:17;;;;;;;20.48;15.05;;;;;;;;;;4977114;28;20771;-49
2022/03/06 11:40:49;;;;;;;23.98;15.90;;;;;;;;;;4976975;28;20263;-49
2022/03/06 11:43:38;;;;;;;20.30;15.20;;;;;;;;;;4977061;28;20548;-48
2022/03/06 11:46:16;;;;;;;20.98;15.18;;;;;;;;;;4977223;28;20239;-48
2022/03/06 11:49:13;;;;;;;19.80;14.02;;;;;;;;;;4976735;28;20210;-48
2022/03/06 11:51:42;;;;;;;19.45;14.68;;;;;;;;;;4976354;28;20592;-49
2022/03/06 11:54:10;;;;;;;19.45;14.07;;;;;;;;;;4976577;28;20266;-49
2022/03/06 11:56:45;;;;;;;18.02;13.35;;;;;;;;;;4976669;28;20210;-49
2022/03/06 11:59:23;;;;;;;16.48;12.80;;;;;;;;;;4977260;28;20261;-49
2022/03/06 12:01:52;;;;;;;29.17;23.33;;;;;;;;;;4977060;28;20298;-49
2022/03/06 12:04:21;;;;;;;26.25;22.00;;;;;;;;;;4977228;28;20215;-49
2022/03/06 12:06:50;;;;;;;24.10;20.60;;;;;;;;;;4976761;28;20215;-49
2022/03/06 12:09:18;;;;;;;24.52;20.05;;;;;;;;;;4976578;28;20219;-49
2022/03/06 12:11:46;;;;;;;24.30;19.90;;;;;;;;;;4976841;28;20575;-49
2022/03/06 12:14:15;;;;;;;22.95;18.55;;;;;;;;;;4976935;28;20511;-49
2022/03/06 12:16:57;;;;;;;25.98;19.08;;;;;;;;;;4976833;28;20211;-49
2022/03/06 12:19:26;;;;;;;22.17;18.15;;;;;;;;;;4975255;28;20282;-49
2022/03/06 12:21:53;;;;;;;25.27;17.52;;;;;;;;;;4979455;28;20215;-49
2022/03/06 12:24:29;;;;;;;20.85;17.17;;;;;;;;;;4980338;28;20583;-49
2022/03/06 12:26:56;;;;;;;22.15;17.33;;;;;;;;;;4979764;28;20215;-49
2022/03/06 12:29:47;;;;;;;21.73;16.23;;;;;;;;;;4980507;28;20208;-49
2022/03/06 12:32:32;;;;;;;18.65;15.35;;;;;;;;;;4979511;28;20266;-49
2022/03/06 12:35:01;;;;;;;17.60;15.02;;;;;;;;;;4980324;28;20583;-49
2022/03/06 12:37:30;;;;;;;16.30;14.02;;;;;;;;;;4980573;28;20274;-49
2022/03/06 12:39:57;;;;;;;18.50;13.82;;;;;;;;;;4979728;28;20286;-49
2022/03/06 12:42:25;;;;;;;16.70;13.90;;;;;;;;;;4980049;28;20254;-49
2022/03/06 12:44:54;;;;;;;18.90;14.07;;;;;;;;;;4979967;28;20243;-49
2022/03/06 12:47:22;;;;;;;16.10;13.60;;;;;;;;;;4980272;28;20216;-49
2022/03/06 12:49:49;;;;;;;16.45;13.05;;;;;;;;;;4978709;28;20204;-49
2022/03/06 12:52:21;;;;;;;17.65;13.00;;;;;;;;;;4980253;28;20219;-49
2022/03/06 12:54:49;;;;;;;14.52;12.07;;;;;;;;;;4979483;28;20207;-49
2022/03/06 12:57:16;;;;;;;14.68;11.82;;;;;;;;;;4979787;28;20234;-49
2022/03/06 12:59:46;;;;;;;13.52;11.55;;;;;;;;;;4979409;28;20585;-49
2022/03/06 13:02:14;;;;;;;13.15;11.30;;;;;;;;;;4979388;28;20299;-49
2022/03/06 13:04:41;;;;;;;15.05;11.13;;;;;;;;;;4979388;28;20704;-49
2022/03/06 13:07:08;;;;;;;11.18;10.05;;;;;;;;;;4979336;28;20215;-49
2022/03/06 13:09:38;;;;;;;12.13;10.05;;;;;;;;;;4978830;28;20203;-49
2022/03/06 13:12:06;;;;;;;12.30;10.35;;;;;;;;;;4979004;28;20560;-49
2022/03/06 13:14:34;;;;;;;10.43;9.27;;;;;;;;;;4979148;28;20215;-49
2022/03/06 13:17:02;;;;;;;11.25;9.48;;;;;;;;;;4979069;28;20250;-49
2022/03/06 13:19:37;;;;;;;18.42;14.95;;;;;;;;;;4979309;28;20208;-49
2022/03/06 13:22:06;;;;;;;30.00;24.02;;;;;;;;;;4979038;28;20207;-49
2022/03/06 13:24:40;;;;;;;26.42;20.83;;;;;;;;;;4979318;28;20262;-49
2022/03/06 13:27:08;;;;;;;22.77;17.92;;;;;;;;;;4978740;28;20208;-49
2022/03/06 13:29:35;;;;;;;19.98;16.48;;;;;;;;;;4978763;28;20274;-49
2022/03/06 13:32:03;;;;;;;19.33;15.80;;;;;;;;;;4977826;28;20203;-49
2022/03/06 13:34:30;;;;;;;19.30;15.30;;;;;;;;;;4978727;28;20270;-49
2022/03/06 13:37:01;;;;;;;18.75;14.82;;;;;;;;;;4978329;28;20287;-49
2022/03/06 13:39:28;;;;;;;19.23;14.50;;;;;;;;;;4977741;28;20215;-49
2022/03/06 13:41:59;;;;;;;18.20;13.77;;;;;;;;;;4978457;28;20218;-49
2022/03/06 13:44:27;;;;;;;17.58;13.60;;;;;;;;;;4978416;28;20649;-49
2022/03/06 13:46:55;;;;;;;17.73;12.55;;;;;;;;;;4978241;28;20208;-49
2022/03/06 13:49:24;;;;;;;16.80;13.48;;;;;;;;;;4978855;28;20625;-49
2022/03/06 13:52:05;;;;;;;15.32;11.55;;;;;;;;;;4978703;28;20274;-50
2022/03/06 13:54:33;;;;;;;14.20;11.15;;;;;;;;;;4978042;28;20203;-49
2022/03/06 13:57:01;;;;;;;12.05;10.15;;;;;;;;;;4978535;28;20751;-49
2022/03/06 13:59:32;;;;;;;12.30;10.07;;;;;;;;;;4978489;28;20273;-49
2022/03/06 14:02:06;;;;;;;13.40;10.68;;;;;;;;;;4978000;28;20302;-49
2022/03/06 14:04:34;;;;;;;13.95;10.20;;;;;;;;;;4977928;28;20215;-49
2022/03/06 14:07:03;;;;;;;10.68;9.23;;;;;;;;;;4978012;28;20214;-50
2022/03/06 14:09:32;;;;;;;11.93;8.82;;;;;;;;;;4977653;28;20299;-49
2022/03/06 14:12:15;;;;;;;11.70;8.73;;;;;;;;;;4977539;28;20271;-49
2022/03/06 14:14:43;;;;;;;11.90;8.25;;;;;;;;;;4977494;28;20223;-49
2022/03/06 14:17:14;;;;;;;10.68;8.45;;;;;;;;;;4977341;28;20273;-50
2022/03/06 14:19:41;;;;;;;9.27;7.80;;;;;;;;;;4977215;28;20216;-49
2022/03/06 14:22:16;;;;;;;8.25;7.43;;;;;;;;;;4977447;28;20215;-49
2022/03/06 14:24:43;;;;;;;9.32;7.75;;;;;;;;;;4977157;28;20207;-49
2022/03/06 14:27:12;;;;;;;8.63;7.38;;;;;;;;;;4977943;28;20274;-49
2022/03/06 14:29:42;;;;;;;7.75;6.53;;;;;;;;;;4977302;28;20204;-49
2022/03/06 14:32:09;;;;;;;7.32;6.60;;;;;;;;;;4977567;28;20219;-49
2022/03/06 14:34:37;;;;;;;7.10;6.07;;;;;;;;;;4976990;28;20564;-50
2022/03/06 14:37:05;;;;;;;7.35;6.47;;;;;;;;;;4977335;28;20215;-49
2022/03/06 14:39:32;;;;;;;9.30;7.18;;;;;;;;;;4976909;28;20279;-49
2022/03/06 14:42:00;;;;;;;14.02;12.10;;;;;;;;;;4977073;28;20231;-49